Time;durP1;ratioP1;P1;durP2;ratioP2;P2;SDS_P1;SDS_P2;PMS_P1;PMS_P2;Temp;Humidity;BMP_temperature;BMP_pressure;BME280_temperature;BME280_humidity;BME280_pressure;Samples;Min_cycle;Max_cycle;Signal;HPM_P1;HPM_P2
2022/12/06 00:01:28;;;;;;;22.58;8.80;;;;;;;10.87;50.22;101780.72;4856928;29;20040;-61
2022/12/06 00:03:58;;;;;;;22.45;8.63;;;;;;;10.90;49.76;101781.38;4886704;29;20503;-61
2022/12/06 00:06:26;;;;;;;22.23;9.40;;;;;;;10.87;49.50;101781.59;4887371;29;20041;-61
2022/12/06 00:08:52;;;;;;;21.40;10.60;;;;;;;10.89;50.51;101779.66;4854579;29;20033;-61
2022/12/06 00:11:20;;;;;;;18.55;8.65;;;;;;;10.91;50.18;101783.09;4872312;29;20384;-61
2022/12/06 00:13:46;;;;;;;24.38;8.85;;;;;;;10.91;49.88;101780.41;4887665;29;20176;-61
2022/12/06 00:16:15;;;;;;;21.33;10.20;;;;;;;10.91;49.63;101783.09;4887749;29;20471;-61
2022/12/06 00:18:43;;;;;;;25.73;9.55;;;;;;;10.88;49.62;101777.94;4885036;29;20400;-61
2022/12/06 00:21:16;;;;;;;22.42;9.77;;;;;;;10.87;51.02;101781.59;4890100;29;20060;-61
2022/12/06 00:23:44;;;;;;;21.30;9.18;;;;;;;10.89;50.12;101787.69;4887600;29;20051;-61
2022/12/06 00:26:09;;;;;;;25.40;9.95;;;;;;;10.87;49.96;101781.59;4888246;29;20021;-61
2022/12/06 00:28:36;;;;;;;25.70;10.90;;;;;;;10.91;49.78;101791.13;4871080;29;20069;-61
2022/12/06 00:31:08;;;;;;;22.90;8.82;;;;;;;10.91;50.29;101791.13;4880707;29;20052;-61
2022/12/06 00:33:34;;;;;;;21.90;8.20;;;;;;;10.94;50.16;101788.22;4880817;29;20116;-61
2022/12/06 00:36:05;;;;;;;16.42;7.50;;;;;;;10.95;50.78;101789.06;4896677;29;20041;-61
2022/12/06 00:38:30;;;;;;;16.20;7.40;;;;;;;10.93;49.76;101780.28;4896811;29;20398;-61
2022/12/06 00:41:13;;;;;;;21.45;9.00;;;;;;;10.90;49.63;101781.38;4880912;29;20040;-61
2022/12/06 00:43:39;;;;;;;19.42;8.60;;;;;;;10.92;49.74;101782.09;4880839;29;20157;-61
2022/12/06 00:46:07;;;;;;;18.15;7.30;;;;;;;10.92;50.53;101778.56;4897697;29;20458;-61
2022/12/06 00:48:32;;;;;;;19.70;7.65;;;;;;;10.92;50.10;101779.44;4896331;29;20044;-61
2022/12/06 00:50:58;;;;;;;17.50;7.88;;;;;;;10.93;50.13;101774.94;4880878;29;20036;-61
2022/12/06 00:53:25;;;;;;;19.15;7.65;;;;;;;10.94;49.96;101779.34;4896620;29;20025;-61
2022/12/06 00:55:50;;;;;;;24.95;8.52;;;;;;;10.92;50.14;101778.56;4880735;29;20525;-61
2022/12/06 00:58:16;;;;;;;19.90;8.48;;;;;;;10.95;50.23;101778.34;4896096;29;20045;-61
2022/12/06 01:00:41;;;;;;;18.27;7.82;;;;;;;10.98;50.38;101776.31;4896322;29;20040;-61
2022/12/06 01:03:07;;;;;;;21.08;9.05;;;;;;;10.99;50.27;101779.88;4895927;29;20050;-61
2022/12/06 01:05:33;;;;;;;23.23;7.82;;;;;;;11.00;50.24;101770.84;4880994;29;20406;-61
2022/12/06 01:07:58;;;;;;;13.60;7.57;;;;;;;11.00;50.46;101777.06;4880534;29;20041;-61
2022/12/06 01:10:24;;;;;;;16.48;7.28;;;;;;;11.02;50.34;101774.28;4896208;29;20479;-61
2022/12/06 01:12:50;;;;;;;18.27;8.25;;;;;;;11.01;50.13;101773.44;4880471;29;20129;-61
2022/12/06 01:15:15;;;;;;;20.25;9.02;;;;;;;11.03;50.16;101773.31;4896105;29;20052;-61
2022/12/06 01:17:41;;;;;;;16.02;8.27;;;;;;;10.99;50.52;101764.66;4897326;29;20122;-62
2022/12/06 01:20:07;;;;;;;20.17;9.32;;;;;;;11.02;50.09;101772.47;4884255;29;20402;-61
2022/12/06 01:22:32;;;;;;;19.15;7.70;;;;;;;11.02;50.25;101775.16;4899288;29;20036;-61
2022/12/06 01:24:58;;;;;;;15.70;6.90;;;;;;;11.05;50.20;101779.44;4899645;29;20041;-61
2022/12/06 01:27:23;;;;;;;18.35;8.70;;;;;;;11.03;50.55;101766.13;4883736;29;20099;-61
2022/12/06 01:29:49;;;;;;;23.65;7.32;;;;;;;11.08;50.29;101780.06;4883636;29;20409;-61
2022/12/06 01:32:14;;;;;;;18.60;8.63;;;;;;;11.07;50.20;101778.34;4899517;29;20088;-61
2022/12/06 01:34:40;;;;;;;17.38;7.13;;;;;;;11.09;50.58;101778.22;4899296;29;20044;-61
2022/12/06 01:37:05;;;;;;;17.15;6.75;;;;;;;11.09;50.05;101775.56;4899164;29;20128;-61
2022/12/06 01:39:30;;;;;;;17.23;6.57;;;;;;;11.10;50.51;101778.16;4899347;29;20029;-61
2022/12/06 01:41:56;;;;;;;21.20;8.45;;;;;;;11.11;50.40;101795.91;4899063;29;20044;-61
2022/12/06 01:44:44;;;;;;;16.90;7.38;;;;;;;11.11;50.61;101774.47;4883915;29;20039;-62
2022/12/06 01:47:16;;;;;;;16.80;8.10;;;;;;;11.10;50.56;101783.50;4900378;29;20052;-62
2022/12/06 01:49:43;;;;;;;17.65;6.75;;;;;;;11.08;50.56;101773.84;4900084;29;20060;-62
2022/12/06 01:52:10;;;;;;;14.40;6.38;;;;;;;11.10;50.92;101767.41;4883355;29;20048;-61
2022/12/06 01:54:36;;;;;;;14.30;7.20;;;;;;;11.10;50.22;101775.47;4898772;29;20506;-61
2022/12/06 01:57:03;;;;;;;22.23;6.47;;;;;;;11.07;50.85;101766.78;4900651;29;20099;-62
2022/12/06 01:59:29;;;;;;;11.20;6.78;;;;;;;11.08;50.45;101765.81;4883487;29;20028;-62
2022/12/06 02:01:55;;;;;;;16.92;7.53;;;;;;;11.11;50.08;101769.13;4899857;29;20047;-62
2022/12/06 02:04:21;;;;;;;17.02;6.90;;;;;;;11.15;50.45;101760.84;4898735;29;20064;-62
2022/12/06 02:06:47;;;;;;;17.17;7.03;;;;;;;11.10;50.31;101754.00;4898636;29;20506;-62
2022/12/06 02:09:13;;;;;;;21.70;7.57;;;;;;;11.17;50.62;101757.09;4898603;29;20387;-62
2022/12/06 02:11:39;;;;;;;14.15;7.50;;;;;;;11.18;50.52;101757.94;4898646;29;20024;-62
2022/12/06 02:14:06;;;;;;;15.20;6.93;;;;;;;11.19;50.29;101759.69;4879319;29;20044;-62
2022/12/06 02:17:13;;;;;;;20.10;6.53;;;;;;;11.19;50.52;101757.00;4879865;29;20503;-62
2022/12/06 02:20:09;;;;;;;12.02;6.25;;;;;;;11.19;50.29;101759.69;4879844;29;20088;-62
2022/12/06 02:23:07;;;;;;;17.55;6.80;;;;;;;11.16;50.42;101752.72;4879610;29;20093;-62
2022/12/06 02:25:53;;;;;;;14.60;7.45;;;;;;;11.15;51.29;101758.16;4877898;29;20037;-62
2022/12/06 02:28:47;;;;;;;19.15;7.80;;;;;;;11.14;50.49;101756.47;4880414;29;20124;-62
2022/12/06 02:31:16;;;;;;;;;;;;;;;11.15;50.65;101759.03;4880980;29;20089;-62
2022/12/06 02:33:48;;;;;;;15.13;6.03;;;;;;;11.16;50.39;101754.53;4879423;29;20297;-61
2022/12/06 02:36:39;;;;;;;19.00;6.97;;;;;;;11.18;50.42;101749.91;4879653;29;20116;-62
2022/12/06 02:39:26;;;;;;;16.25;7.10;;;;;;;11.18;50.42;101747.22;4863624;29;20041;-62
2022/12/06 02:42:10;;;;;;;14.25;6.68;;;;;;;11.20;50.15;101748.81;4879191;29;20511;-62
2022/12/06 02:44:40;;;;;;;16.77;7.75;;;;;;;11.22;50.46;101743.38;4864141;29;20033;-62
2022/12/06 02:47:07;;;;;;;15.88;7.28;;;;;;;11.24;50.34;101744.09;4863826;29;20060;-62
2022/12/06 02:49:34;;;;;;;17.17;7.50;;;;;;;11.24;50.30;101746.78;4879281;29;20530;-62
2022/12/06 02:52:00;;;;;;;15.30;7.20;;;;;;;11.27;50.28;101743.88;4879049;29;20041;-62
2022/12/06 02:54:27;;;;;;;13.63;6.47;;;;;;;11.28;50.51;101740.25;4879081;29;20040;-62
2022/12/06 02:56:52;;;;;;;18.23;8.13;;;;;;;11.30;50.16;101740.97;4879308;29;20028;-62
2022/12/06 02:59:17;;;;;;;14.82;7.20;;;;;;;11.33;50.54;101744.31;4880493;29;20025;-62
2022/12/06 03:01:47;;;;;;;16.05;7.40;;;;;;;11.35;50.50;101744.19;4848122;29;20044;-62
2022/12/06 03:04:31;;;;;;;17.55;7.45;;;;;;;11.38;50.46;101733.22;4878698;29;20048;-61
2022/12/06 03:07:04;;;;;;;15.73;6.72;;;;;;;11.38;50.47;101733.22;4879967;29;20080;-61
2022/12/06 03:09:35;;;;;;;14.88;7.20;;;;;;;11.37;50.85;101731.50;4863348;29;20041;-62
2022/12/06 03:12:27;;;;;;;16.75;6.97;;;;;;;11.41;50.44;101744.59;4878621;29;20037;-61
2022/12/06 03:15:14;;;;;;;15.77;8.73;;;;;;;11.43;50.33;101736.44;4842054;29;20036;-61
2022/12/06 03:17:50;;;;;;;14.85;6.65;;;;;;;11.44;49.95;101735.47;4862766;29;20517;-62
2022/12/06 03:20:41;;;;;;;17.65;7.65;;;;;;;11.45;50.49;101734.47;4879005;29;20050;-62
2022/12/06 03:23:09;;;;;;;21.10;7.68;;;;;;;11.43;50.04;101736.44;4878961;29;20041;-61
2022/12/06 03:25:35;;;;;;;14.98;7.50;;;;;;;11.44;49.90;101728.28;4878562;29;20067;-61
2022/12/06 03:28:02;;;;;;;19.67;8.07;;;;;;;11.47;49.97;101729.88;4878837;29;20045;-61
2022/12/06 03:30:30;;;;;;;17.92;7.20;;;;;;;11.45;50.22;101726.44;4878771;29;20037;-61
2022/12/06 03:32:56;;;;;;;17.20;6.50;;;;;;;11.49;50.29;101736.00;4862607;29;20188;-62
2022/12/06 03:35:28;;;;;;;14.70;6.90;;;;;;;11.52;50.20;101735.75;4879038;29;20033;-61
2022/12/06 03:38:05;;;;;;;12.95;6.13;;;;;;;11.54;50.66;101739.19;4878390;29;20044;-61
2022/12/06 03:40:33;;;;;;;14.20;6.45;;;;;;;11.57;50.26;101738.97;4877835;29;20070;-61
2022/12/06 03:42:59;;;;;;;13.43;6.82;;;;;;;11.57;49.96;101738.97;4878453;29;20033;-61
2022/12/06 03:45:30;;;;;;;11.93;5.88;;;;;;;11.61;50.29;101735.09;4878460;29;20613;-61
2022/12/06 03:48:59;;;;;;;12.80;5.40;;;;;;;11.62;50.54;101723.38;4878390;29;20032;-62
2022/12/06 03:51:28;;;;;;;14.95;6.60;;;;;;;11.62;50.09;101726.91;4832227;29;20048;-61
2022/12/06 03:53:56;;;;;;;12.52;5.32;;;;;;;11.64;50.23;101726.81;4862946;29;20060;-61
2022/12/06 03:56:22;;;;;;;13.65;6.43;;;;;;;11.68;50.79;101722.91;4863154;29;20033;-61
2022/12/06 03:58:48;;;;;;;19.60;6.55;;;;;;;11.69;51.15;101732.72;4878156;29;20037;-61
2022/12/06 04:01:13;;;;;;;13.68;6.07;;;;;;;11.71;50.49;101732.59;4862558;29;20101;-61
2022/12/06 04:03:38;;;;;;;11.52;5.68;;;;;;;11.68;50.54;101720.22;4862850;29;20040;-62
2022/12/06 04:06:05;;;;;;;11.25;5.68;;;;;;;11.69;50.49;101722.00;4879195;29;20044;-61
2022/12/06 04:08:31;;;;;;;15.95;6.47;;;;;;;11.74;50.02;101730.53;4878521;29;20490;-61
2022/12/06 04:10:57;;;;;;;12.20;5.43;;;;;;;11.77;50.27;101738.38;4878117;29;20048;-62
2022/12/06 04:13:22;;;;;;;10.15;5.65;;;;;;;11.77;50.68;101730.31;4877941;29;20491;-61
2022/12/06 04:15:48;;;;;;;12.65;6.38;;;;;;;11.79;50.32;101732.88;4862674;29;20120;-61
2022/12/06 04:18:13;;;;;;;14.82;6.80;;;;;;;11.80;50.44;101738.16;4862840;29;20494;-61
2022/12/06 04:23:50;;;;;;;12.10;5.72;;;;;;;11.80;51.42;101735.47;4864924;29;20056;-62
2022/12/06 04:26:20;;;;;;;14.52;6.13;;;;;;;11.84;50.83;101736.06;4878562;29;20025;-61
2022/12/06 04:39:43;;;;;;;17.77;5.78;;;;;;;11.87;50.30;101750.13;4878070;29;20051;-61
2022/12/06 04:44:53;;;;;;;10.85;5.00;;;;;;;11.90;50.70;101751.72;4865170;29;20048;-61
2022/12/06 04:47:18;;;;;;;7.95;4.70;;;;;;;11.93;51.35;101746.13;4879638;29;20028;-61
2022/12/06 04:49:44;;;;;;;8.85;4.07;;;;;;;11.94;50.62;101743.34;4862641;29;20041;-61
2022/12/06 04:52:09;;;;;;;9.90;4.45;;;;;;;11.93;50.22;101741.63;4863546;29;20052;-61
2022/12/06 04:54:35;;;;;;;13.45;5.07;;;;;;;11.95;50.88;101734.28;4866228;29;20040;-61
2022/12/06 04:57:01;;;;;;;11.45;5.03;;;;;;;12.00;50.22;101736.66;4881334;29;20037;-61
2022/12/06 04:59:27;;;;;;;10.65;4.90;;;;;;;12.00;50.67;101732.16;4866363;29;20064;-61
2022/12/06 05:01:53;;;;;;;10.23;4.45;;;;;;;12.03;50.85;101736.41;4865605;29;20396;-61
2022/12/06 05:04:18;;;;;;;9.98;4.18;;;;;;;12.06;51.42;101741.56;4882368;29;20052;-61
2022/12/06 05:06:44;;;;;;;8.18;4.07;;;;;;;12.04;50.21;101733.59;4865571;29;20119;-61
2022/12/06 05:09:09;;;;;;;9.10;4.03;;;;;;;12.06;50.75;101728.97;4867145;29;20105;-61
2022/12/06 05:11:35;;;;;;;10.75;4.72;;;;;;;12.07;50.95;101728.00;4869163;29;20040;-61
2022/12/06 05:14:00;;;;;;;8.60;4.80;;;;;;;12.10;51.20;101738.50;4883879;29;20033;-62
2022/12/06 05:16:26;;;;;;;7.20;3.83;;;;;;;12.10;50.35;101730.47;4884093;29;20414;-61
2022/12/06 05:18:52;;;;;;;11.68;4.45;;;;;;;12.14;51.26;101734.59;4901315;29;20059;-61
2022/12/06 05:21:20;;;;;;;7.45;3.63;;;;;;;12.14;51.35;101729.22;4900953;29;20040;-61
2022/12/06 05:23:45;;;;;;;8.73;3.38;;;;;;;12.15;50.28;101725.59;4868616;29;20464;-61
2022/12/06 05:26:13;;;;;;;6.63;3.75;;;;;;;12.15;51.52;101722.91;4900955;29;20115;-61
2022/12/06 05:28:39;;;;;;;8.05;4.45;;;;;;;12.19;51.12;101721.72;4883964;29;20044;-61
2022/12/06 05:31:05;;;;;;;8.77;4.55;;;;;;;12.19;51.77;101719.03;4883552;29;20081;-61
2022/12/06 05:33:30;;;;;;;10.70;5.13;;;;;;;12.22;51.51;101723.31;4900463;29;20041;-61
2022/12/06 05:35:56;;;;;;;5.72;4.10;;;;;;;12.24;50.59;101724.03;4883420;29;20447;-61
2022/12/06 05:38:21;;;;;;;8.27;3.67;;;;;;;12.23;51.48;101727.69;4868782;29;20032;-62
2022/12/06 05:40:47;;;;;;;12.65;4.47;;;;;;;12.26;50.43;101731.00;4900165;29;20568;-61
2022/12/06 05:43:13;;;;;;;8.35;4.40;;;;;;;12.28;50.64;101720.97;4868302;29;20127;-61
2022/12/06 05:45:39;;;;;;;5.63;3.42;;;;;;;12.28;51.09;101720.16;4900272;29;20124;-61
2022/12/06 05:48:05;;;;;;;8.40;3.75;;;;;;;12.31;51.13;101721.72;4900545;29;20123;-61
2022/12/06 05:50:30;;;;;;;7.55;3.05;;;;;;;12.32;51.24;101718.06;4883896;29;20550;-61
2022/12/06 05:52:57;;;;;;;6.13;3.33;;;;;;;12.33;51.39;101717.09;4883646;29;20044;-61
2022/12/06 05:55:23;;;;;;;6.82;3.17;;;;;;;12.33;51.07;101720.63;4900076;29;20044;-61
2022/12/06 05:57:49;;;;;;;10.02;4.32;;;;;;;12.36;50.77;101723.09;4867708;29;20036;-61
2022/12/06 06:00:15;;;;;;;18.02;6.85;;;;;;;12.37;51.56;101724.78;4867864;29;20390;-62
2022/12/06 06:02:40;;;;;;;15.90;7.82;;;;;;;12.38;50.77;101714.91;4883554;29;20043;-62
2022/12/06 06:05:09;;;;;;;13.85;6.30;;;;;;;12.39;50.59;101716.63;4900207;29;20056;-61
2022/12/06 06:07:35;;;;;;;13.82;5.15;;;;;;;12.42;50.91;101721.75;4868269;29;20498;-61
2022/12/06 06:10:00;;;;;;;13.10;5.03;;;;;;;12.41;50.64;101720.91;4867696;29;20051;-61
2022/12/06 06:12:25;;;;;;;9.98;4.35;;;;;;;12.43;50.91;101734.19;4867402;29;20494;-61
2022/12/06 06:14:52;;;;;;;9.18;3.85;;;;;;;12.43;51.68;101726.13;4883091;29;20060;-61
2022/12/06 06:17:17;;;;;;;6.05;3.50;;;;;;;12.46;50.75;101736.66;4867666;29;20156;-61
2022/12/06 06:19:43;;;;;;;8.38;3.60;;;;;;;12.47;51.26;101731.19;4882998;29;20550;-61
2022/12/06 06:22:08;;;;;;;5.88;3.35;;;;;;;12.46;51.67;101733.97;4883092;29;20038;-61
2022/12/06 06:24:38;;;;;;;5.07;3.13;;;;;;;12.45;51.20;101730.41;4883171;29;20041;-61
2022/12/06 06:27:04;;;;;;;9.77;3.75;;;;;;;12.49;50.58;101736.41;4851961;29;20379;-61
2022/12/06 06:29:29;;;;;;;10.35;4.82;;;;;;;12.47;51.47;101735.69;4883067;29;20043;-61
2022/12/06 06:31:55;;;;;;;11.52;5.00;;;;;;;12.47;51.71;101735.69;4852041;29;20088;-61
2022/12/06 06:34:20;;;;;;;11.38;5.50;;;;;;;12.49;50.90;101725.66;4883058;29;20049;-61
2022/12/06 06:36:45;;;;;;;10.43;5.70;;;;;;;12.52;51.75;101733.50;4882545;29;20052;-62
2022/12/06 06:39:11;;;;;;;10.32;5.22;;;;;;;12.54;50.72;101731.53;4866898;29;20542;-61
2022/12/06 06:41:36;;;;;;;14.77;6.50;;;;;;;12.52;51.25;101722.75;4882899;29;20060;-62
2022/12/06 06:44:02;;;;;;;11.50;6.15;;;;;;;12.56;50.79;101721.53;4851648;29;20056;-62
2022/12/06 06:46:27;;;;;;;10.43;5.10;;;;;;;12.52;50.55;101717.38;4851550;29;20048;-62
2022/12/06 06:48:53;;;;;;;14.10;6.35;;;;;;;12.56;51.01;101725.06;4867193;29;20049;-61
2022/12/06 06:51:18;;;;;;;9.90;5.43;;;;;;;12.59;51.71;101726.69;4867323;29;20076;-62
2022/12/06 06:53:44;;;;;;;13.85;5.95;;;;;;;12.62;50.80;101734.47;4851208;29;20047;-61
2022/12/06 06:56:10;;;;;;;15.07;5.90;;;;;;;12.62;51.61;101735.34;4882468;29;20056;-61
2022/12/06 06:58:35;;;;;;;9.35;5.05;;;;;;;12.63;50.69;101729.00;4882316;29;20423;-61
2022/12/06 07:01:02;;;;;;;8.38;4.57;;;;;;;12.64;51.41;101721.78;4881903;29;20045;-61
2022/12/06 07:03:28;;;;;;;6.97;3.70;;;;;;;12.65;50.60;101726.16;4882112;29;20037;-61
2022/12/06 07:06:13;;;;;;;7.40;3.72;;;;;;;12.62;51.29;101721.91;4881912;29;20040;-62
2022/12/06 07:08:40;;;;;;;8.38;3.70;;;;;;;12.65;50.93;101728.84;4882139;29;20384;-61
2022/12/06 07:11:06;;;;;;;7.13;3.45;;;;;;;12.67;50.98;101726.94;4866534;29;20510;-64
2022/12/06 07:13:31;;;;;;;7.03;3.88;;;;;;;12.66;51.00;101718.00;4866400;29;20049;-61
2022/12/06 07:15:57;;;;;;;9.70;4.30;;;;;;;12.68;51.74;101731.31;4880910;29;20041;-61
2022/12/06 07:18:23;;;;;;;10.15;4.47;;;;;;;12.67;52.02;101722.38;4866112;29;20491;-61
2022/12/06 07:21:06;;;;;;;7.32;4.78;;;;;;;12.68;50.95;101728.63;4898334;29;20063;-61
2022/12/06 07:23:33;;;;;;;15.30;5.43;;;;;;;12.70;51.52;101721.31;4866516;29;20471;-61
2022/12/06 07:26:13;;;;;;;10.35;5.30;;;;;;;12.72;51.66;101727.41;4881767;29;20119;-61
2022/12/06 07:28:45;;;;;;;9.23;5.03;;;;;;;12.72;51.39;101722.03;4866675;29;20041;-61
2022/12/06 07:31:13;;;;;;;7.18;4.57;;;;;;;12.73;51.47;101721.91;4866161;29;20067;-61
2022/12/06 07:33:39;;;;;;;8.57;3.85;;;;;;;12.75;51.02;101719.13;4865916;29;20051;-61
2022/12/06 07:36:05;;;;;;;8.23;3.63;;;;;;;12.76;51.12;101720.81;4850597;29;20139;-61
2022/12/06 07:38:30;;;;;;;10.88;4.47;;;;;;;12.78;51.88;101729.63;4866546;29;20119;-61
2022/12/06 07:44:59;;;;;;;11.77;4.50;;;;;;;12.78;51.83;101735.00;4850798;29;20119;-61
2022/12/06 07:46:34;;;;;;;7.50;3.83;;;;;;;12.78;50.85;101724.25;4883962;29;20077;-62
2022/12/06 07:49:00;;;;;;;9.32;3.20;;;;;;;12.77;51.34;101719.84;4898325;29;20115;-62
2022/12/06 07:51:25;;;;;;;7.55;3.80;;;;;;;12.78;50.73;101727.81;4881894;29;20033;-61
2022/12/06 07:53:50;;;;;;;7.82;3.97;;;;;;;12.79;50.71;101729.50;4881569;29;20092;-61
2022/12/06 07:56:16;;;;;;;10.13;3.83;;;;;;;12.79;50.73;101734.00;4866257;29;20119;-62
2022/12/06 07:58:41;;;;;;;11.55;5.05;;;;;;;12.79;52.06;101732.19;4881719;29;20040;-62
2022/12/06 08:01:06;;;;;;;11.40;4.57;;;;;;;12.80;51.38;101739.28;4881942;29;20037;-61
2022/12/06 08:03:32;;;;;;;11.68;4.95;;;;;;;12.84;51.45;101737.22;4881379;29;20028;-61
2022/12/06 08:05:57;;;;;;;12.80;5.20;;;;;;;12.84;51.70;101739.91;4898123;29;20577;-62
2022/12/06 08:08:23;;;;;;;14.32;6.03;;;;;;;12.86;51.25;101737.94;4881733;29;20051;-62
2022/12/06 08:10:48;;;;;;;11.50;4.93;;;;;;;12.87;51.09;101744.19;4881069;29;20033;-61
2022/12/06 08:13:13;;;;;;;7.95;4.40;;;;;;;12.89;51.31;101745.75;4865823;29;20089;-61
2022/12/06 08:15:39;;;;;;;13.60;5.32;;;;;;;12.89;51.40;101743.06;4881366;29;20124;-61
2022/12/06 08:18:04;;;;;;;10.18;4.55;;;;;;;12.90;51.19;101744.75;4897801;29;20055;-61
2022/12/06 08:20:30;;;;;;;11.82;5.65;;;;;;;12.91;51.40;101748.31;4881454;29;20517;-62
2022/12/06 08:22:55;;;;;;;9.18;4.93;;;;;;;12.93;51.57;101754.41;4897938;29;20037;-61
2022/12/06 08:25:21;;;;;;;12.80;4.75;;;;;;;12.95;52.01;101753.34;4865626;29;20055;-61
2022/12/06 08:27:46;;;;;;;17.92;6.60;;;;;;;12.97;51.52;101758.59;4883295;29;20075;-61
2022/12/06 08:30:12;;;;;;;20.52;6.80;;;;;;;12.96;51.35;101749.66;4869358;29;20032;-61
2022/12/06 08:32:37;;;;;;;15.55;5.55;;;;;;;13.00;51.91;101761.91;4884931;29;20077;-62
2022/12/06 08:35:03;;;;;;;8.90;4.90;;;;;;;13.01;51.53;101758.22;4884702;29;20064;-62
2022/12/06 08:37:28;;;;;;;12.57;5.80;;;;;;;13.04;51.54;101757.13;4884706;29;20403;-61
2022/12/06 08:39:53;;;;;;;10.00;5.35;;;;;;;13.05;51.67;101758.84;4901356;29;20079;-61
2022/12/06 08:42:19;;;;;;;11.73;4.40;;;;;;;13.05;51.44;101765.06;4884623;29;20069;-62
2022/12/06 08:44:44;;;;;;;11.70;4.28;;;;;;;13.08;50.63;101764.88;4869144;29;20112;-61
2022/12/06 08:47:10;;;;;;;13.07;4.43;;;;;;;13.11;51.13;101763.75;4885164;29;20033;-62
2022/12/06 08:49:35;;;;;;;9.55;4.30;;;;;;;13.10;51.49;101757.53;4868845;29;20033;-62
2022/12/06 08:52:01;;;;;;;12.65;5.32;;;;;;;13.15;51.05;101760.69;4901162;29;20037;-62
2022/12/06 08:54:26;;;;;;;5.47;3.83;;;;;;;13.15;50.81;101760.69;4853590;29;20033;-62
2022/12/06 08:56:52;;;;;;;13.57;5.03;;;;;;;13.20;51.56;101768.41;4884231;29;20112;-61
2022/12/06 08:59:18;;;;;;;7.60;4.07;;;;;;;13.22;50.90;101767.31;4869061;29;20060;-61
2022/12/06 09:01:44;;;;;;;12.05;4.43;;;;;;;13.25;51.57;101764.38;4868937;29;20037;-62
2022/12/06 09:04:10;;;;;;;7.00;4.28;;;;;;;13.31;50.57;101763.88;4884506;29;20071;-62
2022/12/06 09:06:38;;;;;;;11.48;4.22;;;;;;;13.32;51.61;101772.78;4868571;29;20107;-61
2022/12/06 09:09:04;;;;;;;8.82;3.83;;;;;;;13.32;50.49;101773.66;4868654;29;20028;-62
2022/12/06 09:11:29;;;;;;;10.75;4.55;;;;;;;13.32;50.72;101775.47;4853638;29;20410;-61
2022/12/06 09:13:54;;;;;;;10.73;4.22;;;;;;;13.35;50.86;101773.41;4868678;29;20128;-62
2022/12/06 09:16:21;;;;;;;9.48;3.97;;;;;;;13.38;50.52;101778.53;4900690;29;20040;-61
2022/12/06 09:18:47;;;;;;;8.38;4.18;;;;;;;13.39;51.29;101780.28;4868386;29;20124;-61
2022/12/06 09:21:15;;;;;;;6.90;3.60;;;;;;;13.41;51.15;101781.00;4853124;29;20043;-61
2022/12/06 09:23:41;;;;;;;9.18;3.67;;;;;;;13.43;51.30;101787.09;4884225;29;20020;-62
2022/12/06 09:26:06;;;;;;;7.70;3.63;;;;;;;13.47;51.52;101786.84;4884075;29;20029;-62
2022/12/06 09:28:34;;;;;;;5.68;2.90;;;;;;;13.49;50.56;101783.06;4883649;29;20123;-63
2022/12/06 09:31:01;;;;;;;8.32;3.38;;;;;;;13.58;51.32;101789.53;4883791;29;20032;-61
2022/12/06 09:33:26;;;;;;;10.00;3.40;;;;;;;13.59;51.40;101793.94;4868127;29;20044;-61
2022/12/06 09:35:52;;;;;;;12.27;3.67;;;;;;;13.57;50.46;101787.84;4883596;29;20032;-61
2022/12/06 09:38:20;;;;;;;7.38;2.90;;;;;;;13.60;51.33;101804.56;4883052;29;20036;-62
2022/12/06 09:40:54;;;;;;;8.77;2.75;;;;;;;13.62;51.18;101807.16;4867969;29;20037;-61
2022/12/06 09:43:53;;;;;;;13.48;3.20;;;;;;;13.66;50.38;101797.81;4883369;29;20382;-62
2022/12/06 09:46:47;;;;;;;9.73;3.33;;;;;;;13.70;50.74;101799.31;4883405;29;20092;-61
2022/12/06 09:49:21;;;;;;;6.60;3.03;;;;;;;13.84;50.11;101801.72;4900333;29;20506;-61
2022/12/06 09:52:06;;;;;;;8.98;3.17;;;;;;;14.01;51.21;101793.94;4883420;29;20047;-62
2022/12/06 09:54:38;;;;;;;6.05;2.90;;;;;;;14.11;50.80;101790.47;4883181;29;20533;-61
2022/12/06 09:57:06;;;;;;;6.45;2.83;;;;;;;14.13;50.63;101797.44;4900335;29;20036;-62
2022/12/06 09:59:55;;;;;;;4.65;2.67;;;;;;;14.13;49.99;101801.97;4868327;29;20033;-61
2022/12/06 10:02:23;;;;;;;8.73;2.65;;;;;;;14.16;50.67;101801.72;4900370;29;20890;-61
2022/12/06 10:05:07;;;;;;;6.65;3.45;;;;;;;14.20;51.15;101806.75;4899766;29;20040;-61
2022/12/06 10:07:49;;;;;;;5.43;2.58;;;;;;;14.22;49.80;101798.53;4883207;29;20502;-61
2022/12/06 10:10:20;;;;;;;6.80;2.90;;;;;;;14.24;50.97;101800.09;4883332;29;20076;-62
2022/12/06 10:13:12;;;;;;;5.07;2.10;;;;;;;14.27;51.09;101788.19;4883206;29;20040;-61
2022/12/06 10:15:40;;;;;;;4.78;2.65;;;;;;;14.31;50.87;101782.44;4867466;29;20040;-61
2022/12/06 10:18:35;;;;;;;3.38;2.22;;;;;;;14.36;49.33;101782.94;4899305;29;20055;-61
2022/12/06 10:21:11;;;;;;;3.30;2.53;;;;;;;14.43;51.03;101780.59;4845260;29;20051;-61
2022/12/06 10:23:49;;;;;;;5.05;2.13;;;;;;;14.46;50.75;101783.84;4900069;29;20024;-62
2022/12/06 10:26:18;;;;;;;5.32;1.92;;;;;;;14.47;50.87;101777.50;4882711;29;20111;-61
2022/12/06 10:28:57;;;;;;;3.55;2.53;;;;;;;14.47;49.92;101785.56;4883012;29;20410;-61
2022/12/06 10:31:26;;;;;;;7.88;2.42;;;;;;;14.42;49.93;101768.94;4899642;29;20466;-61
2022/12/06 10:34:10;;;;;;;7.40;2.72;;;;;;;14.44;50.83;101775.06;4867092;29;20041;-61
2022/12/06 10:37:09;;;;;;;6.63;2.83;;;;;;;14.43;50.96;101778.72;4899320;29;20033;-61
2022/12/06 10:39:46;;;;;;;5.03;2.80;;;;;;;14.40;50.53;101768.22;4899317;29;20032;-61
2022/12/06 10:42:25;;;;;;;5.05;2.58;;;;;;;14.43;49.56;101767.94;4867167;29;20505;-61
2022/12/06 10:44:54;;;;;;;7.82;2.60;;;;;;;14.48;50.57;101754.94;4899130;29;20036;-61
2022/12/06 10:47:24;;;;;;;4.80;2.03;;;;;;;14.55;50.80;101764.19;4867090;29;20031;-61
2022/12/06 10:50:18;;;;;;;10.90;4.00;;;;;;;14.61;50.60;101764.66;4882634;29;20131;-61
2022/12/06 10:52:50;;;;;;;5.63;2.75;;;;;;;14.61;49.69;101748.47;4882366;29;20048;-62
2022/12/06 10:55:18;;;;;;;;;;;;;;;14.69;49.57;101751.34;4867346;29;20048;-61
2022/12/06 10:58:00;;;;;;;4.35;2.20;;;;;;;14.71;50.16;101752.97;4882110;29;19923;-61
2022/12/06 11:00:27;;;;;;;3.55;2.13;;;;;;;14.72;49.95;101753.78;4866694;29;20060;-63
2022/12/06 11:02:59;;;;;;;6.65;2.90;;;;;;;14.73;49.96;101763.59;4866442;29;20398;-61
2022/12/06 11:05:35;;;;;;;3.70;2.30;;;;;;;14.74;50.30;101760.75;4899676;29;20032;-61
2022/12/06 11:08:28;;;;;;;5.97;2.40;;;;;;;14.77;49.12;101757.78;4882388;29;20496;-61
2022/12/06 11:10:55;;;;;;;3.08;2.05;;;;;;;14.77;48.86;101757.78;4898820;29;20067;-62
2022/12/06 11:13:33;;;;;;;3.78;1.90;;;;;;;14.82;50.24;101768.22;4881700;29;20056;-61
2022/12/06 11:16:09;;;;;;;5.75;1.75;;;;;;;14.86;48.76;101759.69;4866365;29;20059;-61
2022/12/06 11:18:36;;;;;;;5.15;1.95;;;;;;;14.90;48.96;101760.28;4881554;29;20045;-61
2022/12/06 11:21:23;;;;;;;3.33;1.55;;;;;;;14.94;49.29;101759.03;4881981;29;20048;-61
2022/12/06 11:24:26;;;;;;;4.20;1.85;;;;;;;15.02;48.67;101764.59;4898366;29;20031;-61
2022/12/06 11:27:04;;;;;;;2.80;1.88;;;;;;;15.22;49.64;101755.59;4898371;29;20029;-61
2022/12/06 11:29:29;;;;;;;3.55;2.08;;;;;;;15.58;47.68;101755.03;4882129;29;20040;-61
2022/12/06 11:31:58;;;;;;;6.80;1.88;;;;;;;15.76;48.62;101746.25;4898396;29;20056;-61
2022/12/06 11:34:33;;;;;;;7.50;3.05;;;;;;;16.19;48.60;101752.94;4898154;29;20088;-61
2022/12/06 11:37:00;;;;;;;6.85;2.78;;;;;;;16.68;47.94;101743.81;4881665;29;20067;-61
2022/12/06 11:39:25;;;;;;;3.47;2.63;;;;;;;16.85;47.12;101751.19;4881333;29;20562;-62
2022/12/06 11:41:53;;;;;;;4.38;2.55;;;;;;;16.81;46.89;101747.06;4881405;29;20033;-62
2022/12/06 11:44:24;;;;;;;6.15;2.30;;;;;;;16.85;47.08;101740.34;4881804;29;20027;-62
2022/12/06 11:46:55;;;;;;;5.72;2.72;;;;;;;16.65;48.22;101733.28;4866285;29;20079;-62
2022/12/06 11:49:27;;;;;;;6.93;2.97;;;;;;;16.47;47.63;101735.00;4881367;29;20120;-62
2022/12/06 11:51:53;;;;;;;6.53;3.55;;;;;;;16.42;48.37;101731.88;4897391;29;20135;-62
2022/12/06 11:54:26;;;;;;;11.00;4.00;;;;;;;16.37;48.36;101738.72;4865039;29;20211;-61